Time;durP1;ratioP1;P1;durP2;ratioP2;P2;SDS_P1;SDS_P2;PMS_P1;PMS_P2;Temp;Humidity;BMP_temperature;BMP_pressure;BME280_temperature;BME280_humidity;BME280_pressure;Samples;Min_cycle;Max_cycle;Signal;HPM_P1;HPM_P2
2021/06/13 00:01:31;;;;;;;1.60;0.90;;;;;;;14.12;74.04;101466.72;5022002;28;20424;-73
2021/06/13 00:03:57;;;;;;;0.77;0.53;;;;;;;14.14;73.83;101468.03;5015871;28;20492;-73
2021/06/13 00:06:23;;;;;;;0.80;0.80;;;;;;;14.12;72.11;101458.56;5015878;28;20471;-73
2021/06/13 00:08:51;;;;;;;1.80;0.87;;;;;;;14.17;70.93;101468.56;5015999;28;20455;-73
2021/06/13 00:11:17;;;;;;;1.57;1.00;;;;;;;14.09;70.40;101467.34;5016062;28;20455;-71
2021/06/13 00:13:44;;;;;;;0.97;0.77;;;;;;;14.08;69.89;101468.47;5015993;28;20440;-73
2021/06/13 00:16:11;;;;;;;1.03;0.80;;;;;;;14.03;69.55;101471.25;5015645;28;20464;-72
2021/06/13 00:18:37;;;;;;;2.20;0.90;;;;;;;14.01;70.27;101482.47;5015651;28;20437;-72
2021/06/13 00:21:03;;;;;;;3.10;1.20;;;;;;;14.00;69.02;101485.50;5015633;28;20444;-72
2021/06/13 00:23:30;;;;;;;0.80;0.80;;;;;;;13.97;69.03;101472.50;5015469;28;20494;-72
2021/06/13 00:25:57;;;;;;;3.53;1.40;;;;;;;13.95;69.39;101485.63;5015501;28;20467;-73
2021/06/13 00:28:23;;;;;;;1.57;1.00;;;;;;;13.88;68.66;101484.06;5015185;28;20979;-72
2021/06/13 00:30:49;;;;;;;1.20;0.90;;;;;;;13.90;68.88;101491.97;5015426;28;20440;-72
2021/06/13 00:33:15;;;;;;;1.30;0.70;;;;;;;13.89;68.94;101491.13;5015261;28;20445;-72
2021/06/13 00:35:42;;;;;;;1.13;0.63;;;;;;;13.87;70.16;101493.38;5014959;28;20984;-72
2021/06/13 00:38:08;;;;;;;1.07;0.70;;;;;;;13.88;68.81;101488.72;5015309;28;20443;-72
2021/06/13 00:40:34;;;;;;;1.40;1.07;;;;;;;13.83;69.27;101488.81;5015231;28;20451;-72
2021/06/13 00:43:02;;;;;;;1.27;0.70;;;;;;;13.81;68.79;101499.19;5015132;28;20487;-72
2021/06/13 00:45:28;;;;;;;2.07;0.80;;;;;;;13.76;69.36;101496.56;5013819;28;20476;-72
2021/06/13 00:47:55;;;;;;;0.70;0.70;;;;;;;13.73;69.38;101500.72;5015156;28;20877;-73
2021/06/13 00:50:27;;;;;;;0.80;0.80;;;;;;;13.65;69.43;101498.66;5015065;28;20440;-73
2021/06/13 00:52:54;;;;;;;1.27;0.67;;;;;;;13.67;69.43;101488.28;5015010;28;20435;-72
2021/06/13 00:55:20;;;;;;;1.57;0.90;;;;;;;13.67;69.50;101493.72;5014850;28;20461;-72
2021/06/13 00:57:46;;;;;;;0.73;0.70;;;;;;;13.68;70.05;101500.81;5014753;28;20454;-72
2021/06/13 01:00:15;;;;;;;0.70;0.50;;;;;;;13.68;70.21;101499.97;5015150;28;20451;-73
2021/06/13 01:02:41;;;;;;;6.40;1.37;;;;;;;13.64;70.29;101502.50;5014737;28;20495;-73
2021/06/13 01:05:08;;;;;;;1.33;1.13;;;;;;;13.63;70.85;101507.16;5014731;28;20905;-72
2021/06/13 01:07:41;;;;;;;1.40;0.70;;;;;;;13.66;71.82;101507.63;5014687;28;20436;-73
2021/06/13 01:10:12;;;;;;;0.83;0.73;;;;;;;13.59;72.69;101499.84;5014241;28;20420;-73
2021/06/13 01:12:43;;;;;;;2.60;1.20;;;;;;;13.59;73.37;101508.00;5014963;28;20479;-73
2021/06/13 01:15:12;;;;;;;1.97;0.80;;;;;;;13.56;73.78;101512.16;5014577;28;20460;-73
2021/06/13 01:17:45;;;;;;;3.73;1.03;;;;;;;13.55;74.28;101507.81;5014561;28;20458;-73
2021/06/13 01:20:21;;;;;;;3.00;1.00;;;;;;;13.54;74.52;101516.28;5014652;28;20475;-73
2021/06/13 01:23:23;;;;;;;1.10;1.00;;;;;;;13.51;74.51;101506.00;5014611;28;20479;-73
2021/06/13 01:26:10;;;;;;;1.90;0.83;;;;;;;13.56;73.67;101522.25;5014050;28;20468;-73
2021/06/13 01:29:01;;;;;;;1.20;0.63;;;;;;;13.59;72.88;101521.63;5014467;28;20463;-72
2021/06/13 01:31:31;;;;;;;3.23;1.07;;;;;;;13.58;71.89;101525.47;4999379;28;20453;-72
2021/06/13 01:34:00;;;;;;;1.00;0.90;;;;;;;13.54;72.33;101525.25;5014504;28;20464;-73
2021/06/13 01:36:29;;;;;;;1.00;0.70;;;;;;;13.51;72.71;101523.13;5014252;28;20586;-73
2021/06/13 01:38:56;;;;;;;1.23;0.77;;;;;;;13.51;72.43;101516.88;5014225;28;20452;-73
2021/06/13 01:41:28;;;;;;;3.43;1.00;;;;;;;13.46;72.40;101527.84;5014162;28;20443;-73
2021/06/13 01:43:56;;;;;;;1.73;0.90;;;;;;;13.46;71.90;101534.09;5013697;28;20980;-72
2021/06/13 01:46:26;;;;;;;1.10;0.73;;;;;;;13.41;72.11;101533.34;5014079;28;20440;-71
2021/06/13 01:48:52;;;;;;;2.10;0.80;;;;;;;13.41;72.82;101528.72;5014015;28;20440;-71
2021/06/13 01:51:19;;;;;;;1.33;0.90;;;;;;;13.46;72.18;101528.66;5020110;28;20447;-72
2021/06/13 01:53:46;;;;;;;0.97;0.87;;;;;;;13.36;71.77;101526.09;5013994;28;20471;-71
2021/06/13 01:56:14;;;;;;;2.37;1.23;;;;;;;13.38;72.02;101529.34;5013977;28;20479;-72
2021/06/13 01:58:44;;;;;;;2.47;1.23;;;;;;;13.33;71.98;101529.41;5013909;28;20431;-71
2021/06/13 02:01:11;;;;;;;1.27;0.57;;;;;;;13.32;71.77;101535.94;5013934;28;20480;-71
2021/06/13 02:03:43;;;;;;;1.60;1.13;;;;;;;13.17;72.23;101542.41;5013725;28;20856;-71
2021/06/13 02:06:10;;;;;;;2.10;1.27;;;;;;;13.06;72.72;101540.94;5013778;28;20466;-71
2021/06/13 02:08:39;;;;;;;1.07;0.77;;;;;;;13.06;72.97;101543.66;5013715;28;20497;-71
2021/06/13 02:11:08;;;;;;;0.70;0.70;;;;;;;13.04;73.02;101538.50;5013712;28;20451;-71
2021/06/13 02:13:36;;;;;;;1.13;1.00;;;;;;;12.98;73.25;101541.59;5013665;28;20444;-71
2021/06/13 02:16:03;;;;;;;2.00;1.00;;;;;;;13.06;73.79;101544.47;5013491;28;20867;-71
2021/06/13 02:18:29;;;;;;;1.00;0.57;;;;;;;13.06;73.49;101554.56;5013643;28;20440;-71
2021/06/13 02:20:59;;;;;;;2.10;0.77;;;;;;;13.11;74.31;101551.75;5012770;28;20454;-71
2021/06/13 02:23:26;;;;;;;1.43;0.70;;;;;;;13.06;73.67;101554.56;5013517;28;20480;-71
2021/06/13 02:25:53;;;;;;;2.73;1.40;;;;;;;13.02;74.60;101562.47;5013177;28;21008;-71
2021/06/13 02:28:20;;;;;;;1.73;0.73;;;;;;;13.01;74.44;101557.31;5013543;28;20440;-71
2021/06/13 02:30:48;;;;;;;4.97;0.73;;;;;;;13.03;74.68;101560.56;5013475;28;20953;-71
2021/06/13 02:33:16;;;;;;;0.70;0.60;;;;;;;13.05;74.62;101564.59;5013452;28;20447;-73
2021/06/13 02:35:47;;;;;;;2.20;0.77;;;;;;;13.07;74.73;101567.03;5013269;28;20467;-71
2021/06/13 02:38:16;;;;;;;0.83;0.70;;;;;;;13.03;74.93;101566.81;5013718;28;20424;-71
2021/06/13 02:40:43;;;;;;;1.20;0.77;;;;;;;13.05;74.99;101574.66;5013379;28;20478;-71
2021/06/13 02:43:09;;;;;;;1.03;0.70;;;;;;;13.05;75.43;101569.22;5013029;28;20487;-71
2021/06/13 02:45:35;;;;;;;1.80;0.60;;;;;;;13.06;75.09;101570.88;5013297;28;20467;-71
2021/06/13 02:48:01;;;;;;;4.43;1.37;;;;;;;13.01;75.34;101573.63;5013360;28;20440;-69
2021/06/13 02:50:27;;;;;;;2.63;0.90;;;;;;;13.01;75.65;101577.16;5013282;28;20440;-71
2021/06/13 02:53:02;;;;;;;2.13;0.90;;;;;;;12.97;75.62;101578.03;5013275;28;20814;-71
2021/06/13 02:55:39;;;;;;;1.07;0.63;;;;;;;12.96;75.58;101596.28;5013230;28;20501;-70
2021/06/13 02:58:17;;;;;;;1.00;0.37;;;;;;;12.87;75.81;101601.53;5012920;28;20494;-71
2021/06/13 03:00:44;;;;;;;0.70;0.60;;;;;;;12.90;75.89;101610.25;5013244;28;20436;-71
2021/06/13 03:03:11;;;;;;;1.10;0.60;;;;;;;12.86;76.09;101612.72;5013156;28;20494;-71
2021/06/13 03:05:37;;;;;;;2.10;1.30;;;;;;;12.86;76.31;101601.84;5012775;28;21071;-71
2021/06/13 03:08:04;;;;;;;4.00;0.60;;;;;;;12.81;76.47;101613.59;5014174;28;20460;-72
2021/06/13 03:10:32;;;;;;;0.57;0.53;;;;;;;12.78;76.50;101608.72;5013032;28;20448;-73
2021/06/13 03:12:59;;;;;;;1.20;0.67;;;;;;;12.78;76.96;101619.59;5012799;28;20451;-71
2021/06/13 03:15:28;;;;;;;5.60;0.60;;;;;;;12.75;77.64;101622.09;5013002;28;20464;-73
2021/06/13 03:17:56;;;;;;;1.60;1.37;;;;;;;12.74;78.01;101621.28;5013057;28;20455;-72
2021/06/13 03:20:22;;;;;;;1.00;0.63;;;;;;;12.77;78.10;101634.31;5012977;28;20444;-72
2021/06/13 03:22:48;;;;;;;1.47;1.17;;;;;;;12.78;77.91;101627.75;5012784;28;20483;-72
2021/06/13 03:25:15;;;;;;;1.33;1.17;;;;;;;12.78;78.33;101632.41;5012654;28;20498;-72
2021/06/13 03:27:44;;;;;;;1.27;0.60;;;;;;;12.80;78.74;101624.78;5012974;28;20444;-72
2021/06/13 03:30:11;;;;;;;3.13;1.23;;;;;;;12.88;78.21;101634.97;5012643;28;20440;-72
2021/06/13 03:32:37;;;;;;;5.73;1.03;;;;;;;12.80;78.59;101636.47;5014430;28;20436;-72
2021/06/13 03:35:05;;;;;;;1.20;0.90;;;;;;;12.81;78.94;101646.22;5016715;28;20472;-72
2021/06/13 03:37:32;;;;;;;0.90;0.80;;;;;;;12.86;78.61;101642.63;5016556;28;20448;-72
2021/06/13 03:40:01;;;;;;;3.10;0.80;;;;;;;12.81;79.09;101646.22;5022827;28;20443;-72
2021/06/13 03:42:28;;;;;;;2.03;0.80;;;;;;;12.84;79.07;101650.28;5016335;28;20451;-73
2021/06/13 03:44:56;;;;;;;1.17;0.70;;;;;;;12.81;79.42;101646.22;5016261;28;20464;-73
2021/06/13 03:47:23;;;;;;;1.40;1.10;;;;;;;12.91;79.24;101650.72;5016536;28;20451;-73
2021/06/13 03:49:51;;;;;;;4.97;0.70;;;;;;;13.02;79.63;101652.25;5016093;28;20436;-72
2021/06/13 03:52:19;;;;;;;1.80;0.63;;;;;;;12.99;78.57;101658.25;5016190;28;20810;-73
2021/06/13 03:54:45;;;;;;;1.07;0.80;;;;;;;12.98;78.58;101664.00;5016037;28;20463;-72
2021/06/13 03:57:15;;;;;;;1.40;1.10;;;;;;;12.92;78.89;101654.25;5015956;28;20455;-72
2021/06/13 03:59:45;;;;;;;1.27;0.70;;;;;;;12.82;79.08;101664.16;5016019;28;20451;-73
2021/06/13 04:02:14;;;;;;;1.60;1.30;;;;;;;12.88;79.43;101663.00;5016027;28;20475;-72
2021/06/13 04:04:43;;;;;;;1.67;1.10;;;;;;;12.91;79.10;101660.81;5015824;28;20495;-72
2021/06/13 04:07:10;;;;;;;1.53;1.13;;;;;;;13.02;78.88;101662.31;5015895;28;20450;-72
2021/06/13 04:09:38;;;;;;;1.17;1.07;;;;;;;13.07;78.74;101668.50;5016052;28;20448;-72
2021/06/13 04:12:08;;;;;;;1.73;1.00;;;;;;;13.05;78.67;101667.94;5015846;28;20447;-72
2021/06/13 04:14:34;;;;;;;1.77;0.73;;;;;;;13.16;78.17;101670.56;5015681;28;20456;-73
2021/06/13 04:17:02;;;;;;;8.23;1.00;;;;;;;13.24;78.03;101681.66;5015739;28;20813;-72
2021/06/13 04:19:32;;;;;;;1.00;0.77;;;;;;;13.23;77.77;101684.63;5015692;28;20452;-72
2021/06/13 04:22:00;;;;;;;1.90;1.10;;;;;;;13.14;78.11;101676.28;5015689;28;20424;-72
2021/06/13 04:24:27;;;;;;;2.20;0.70;;;;;;;13.26;77.76;101684.88;5015452;28;20487;-72
2021/06/13 04:26:55;;;;;;;0.90;0.83;;;;;;;13.37;77.43;101688.28;5015555;28;20440;-73
2021/06/13 04:29:21;;;;;;;1.97;1.00;;;;;;;13.45;77.46;101689.53;5015228;28;20972;-73
2021/06/13 04:31:48;;;;;;;0.77;0.60;;;;;;;13.45;77.06;101687.59;5015427;28;20444;-73
2021/06/13 04:34:14;;;;;;;0.80;0.70;;;;;;;13.47;77.17;101679.16;5015311;28;20463;-73
2021/06/13 04:36:42;;;;;;;0.80;0.60;;;;;;;13.51;77.09;101682.94;5015352;28;20440;-73
2021/06/13 04:39:08;;;;;;;1.23;0.77;;;;;;;13.53;76.20;101683.44;5015339;28;20451;-73
2021/06/13 04:41:35;;;;;;;2.83;1.00;;;;;;;13.41;76.80;101685.75;5015242;28;20452;-71
2021/06/13 04:44:02;;;;;;;5.50;0.90;;;;;;;13.41;76.65;101688.50;5014211;28;20487;-73
2021/06/13 04:46:28;;;;;;;0.60;0.50;;;;;;;13.33;76.69;101679.88;5015328;28;20443;-74
2021/06/13 04:48:55;;;;;;;1.07;0.80;;;;;;;13.40;76.92;101692.31;5015107;28;20447;-71
2021/06/13 04:51:25;;;;;;;0.97;0.63;;;;;;;13.47;77.06;101687.34;5015094;28;20447;-70
2021/06/13 04:54:16;;;;;;;0.73;0.60;;;;;;;13.53;76.82;101699.75;5014665;28;20956;-71
2021/06/13 04:56:50;;;;;;;1.10;0.50;;;;;;;13.53;76.67;101691.59;5014526;28;20448;-70
2021/06/13 04:59:16;;;;;;;3.60;0.70;;;;;;;13.53;76.50;101699.75;5014938;28;20443;-70
2021/06/13 05:01:43;;;;;;;2.67;0.73;;;;;;;13.54;76.50;101695.94;5015112;28;20444;-70
2021/06/13 05:04:10;;;;;;;3.10;1.00;;;;;;;13.59;76.70;101701.31;5014735;28;20568;-70
2021/06/13 05:06:36;;;;;;;1.10;1.00;;;;;;;13.51;76.25;101707.44;5014821;28;20440;-70
2021/06/13 05:09:05;;;;;;;11.50;1.13;;;;;;;13.49;76.66;101706.88;5014740;28;20451;-70
2021/06/13 05:11:31;;;;;;;3.13;0.70;;;;;;;13.55;76.70;101705.75;5014650;28;20440;-70
2021/06/13 05:13:57;;;;;;;1.03;0.67;;;;;;;13.51;76.48;101701.97;5014623;28;20510;-73
2021/06/13 05:16:24;;;;;;;1.00;0.67;;;;;;;13.56;76.72;101705.44;5014339;28;20444;-72
2021/06/13 05:18:50;;;;;;;1.50;0.80;;;;;;;13.63;76.61;101718.66;5014818;28;20451;-72
2021/06/13 05:21:17;;;;;;;1.37;1.00;;;;;;;13.65;76.40;101708.31;5014526;28;20451;-75
2021/06/13 05:23:43;;;;;;;1.97;0.80;;;;;;;13.72;76.09;101707.94;5014399;28;20484;-71
2021/06/13 05:26:11;;;;;;;1.00;0.60;;;;;;;13.74;76.15;101711.19;5014635;28;20468;-71
2021/06/13 05:28:39;;;;;;;1.07;0.63;;;;;;;13.87;76.25;101716.69;5020687;28;20420;-70
2021/06/13 05:31:05;;;;;;;2.93;0.97;;;;;;;13.97;75.96;101726.63;5014049;28;20814;-71
2021/06/13 05:33:32;;;;;;;1.00;0.90;;;;;;;14.05;75.19;101723.22;5014701;28;20440;-71
2021/06/13 05:36:01;;;;;;;2.53;0.70;;;;;;;14.11;75.58;101718.50;5014241;28;20475;-71
2021/06/13 05:38:28;;;;;;;1.73;0.63;;;;;;;14.18;74.86;101716.22;5014181;28;20455;-71
2021/06/13 05:40:55;;;;;;;1.23;0.60;;;;;;;14.23;74.96;101724.31;5014218;28;20436;-71
2021/06/13 05:43:23;;;;;;;0.70;0.60;;;;;;;14.25;74.25;101722.09;5014095;28;20495;-71
2021/06/13 05:45:49;;;;;;;1.70;0.87;;;;;;;14.28;74.57;101726.94;5013752;28;20460;-71
2021/06/13 05:48:16;;;;;;;1.33;0.70;;;;;;;14.36;74.48;101734.44;5014089;28;20450;-71
2021/06/13 05:50:42;;;;;;;2.40;1.00;;;;;;;14.40;74.15;101729.22;5014004;28;20565;-71
2021/06/13 05:53:09;;;;;;;1.80;1.27;;;;;;;14.51;73.51;101736.13;5014018;28;20448;-73
2021/06/13 05:55:37;;;;;;;0.60;0.57;;;;;;;14.41;73.35;101751.84;5013609;28;20464;-71
2021/06/13 05:58:04;;;;;;;3.40;1.03;;;;;;;14.41;74.12;101752.63;5013606;28;20451;-70
2021/06/13 06:00:33;;;;;;;3.80;0.57;;;;;;;14.41;73.29;101754.56;5013567;28;20444;-71
2021/06/13 06:03:00;;;;;;;0.80;0.70;;;;;;;14.44;73.37;101756.69;5013863;28;20476;-71
2021/06/13 06:05:27;;;;;;;1.17;0.73;;;;;;;14.53;73.63;101771.28;5013873;28;20495;-71
2021/06/13 06:07:55;;;;;;;1.50;0.70;;;;;;;14.55;73.60;101764.41;5013749;28;20444;-71
2021/06/13 06:10:23;;;;;;;2.27;1.33;;;;;;;14.60;73.47;101766.25;5013761;28;20501;-71
2021/06/13 06:12:50;;;;;;;1.30;0.70;;;;;;;14.44;73.69;101773.88;5013716;28;20448;-71
2021/06/13 06:15:19;;;;;;;1.23;0.87;;;;;;;14.52;74.03;101784.13;5013550;28;20483;-71
2021/06/13 06:17:48;;;;;;;3.57;1.10;;;;;;;14.50;74.11;101783.59;5013279;28;20955;-71
2021/06/13 06:20:17;;;;;;;1.40;1.00;;;;;;;14.61;73.82;101784.25;5013629;28;20439;-72
2021/06/13 06:22:43;;;;;;;1.13;1.03;;;;;;;14.68;73.08;101771.03;5013730;28;20439;-71
2021/06/13 06:25:11;;;;;;;3.60;0.80;;;;;;;14.58;73.46;101776.66;5013586;28;20480;-71
2021/06/13 06:27:39;;;;;;;0.80;0.60;;;;;;;14.48;73.27;101783.09;5013618;28;20464;-70
2021/06/13 06:30:08;;;;;;;1.13;0.63;;;;;;;14.52;73.57;101769.66;5013463;28;20455;-71
2021/06/13 06:32:34;;;;;;;1.50;1.30;;;;;;;14.58;73.18;101776.66;5013431;28;20440;-71
2021/06/13 06:35:03;;;;;;;0.70;0.53;;;;;;;14.64;72.85;101780.91;5013469;28;20464;-71
2021/06/13 06:37:29;;;;;;;0.87;0.80;;;;;;;14.66;73.13;101781.44;5013100;28;20447;-71
2021/06/13 06:39:55;;;;;;;1.73;0.93;;;;;;;14.74;73.69;101783.47;5013672;28;20454;-70
2021/06/13 06:42:22;;;;;;;0.70;0.70;;;;;;;14.82;72.53;101782.75;5013392;28;20439;-71
2021/06/13 06:44:48;;;;;;;1.87;0.80;;;;;;;14.82;72.43;101781.97;5013224;28;20499;-70
2021/06/13 06:47:15;;;;;;;5.23;1.23;;;;;;;14.74;72.94;101791.66;5013321;28;20448;-69
2021/06/13 06:49:41;;;;;;;1.03;0.70;;;;;;;14.74;73.18;101794.38;5013313;28;20794;-70
2021/06/13 06:52:10;;;;;;;0.70;0.70;;;;;;;14.80;72.29;101795.91;5012988;28;20455;-69
2021/06/13 06:54:37;;;;;;;0.87;0.87;;;;;;;14.82;72.16;101788.22;5013225;28;20460;-70
2021/06/13 06:57:04;;;;;;;4.90;0.90;;;;;;;14.96;72.29;101792.91;5013114;28;20458;-71
2021/06/13 06:59:30;;;;;;;1.97;1.10;;;;;;;14.82;71.33;101801.06;5013200;28;20448;-70
2021/06/13 07:01:57;;;;;;;0.60;0.57;;;;;;;14.86;72.10;101791.97;5013432;28;20432;-71
2021/06/13 07:04:23;;;;;;;3.40;0.80;;;;;;;14.99;71.62;101795.03;5013103;28;20484;-68
2021/06/13 07:06:50;;;;;;;1.43;0.73;;;;;;;15.05;70.78;101791.09;5013296;28;20428;-67
2021/06/13 07:09:18;;;;;;;1.87;0.57;;;;;;;14.98;69.67;101799.69;5016978;28;20439;-68
2021/06/13 07:11:45;;;;;;;1.87;0.70;;;;;;;14.88;71.10;101788.97;5016910;28;20436;-67
2021/06/13 07:14:11;;;;;;;2.63;0.70;;;;;;;15.00;69.35;101802.09;5016852;28;20514;-68
2021/06/13 07:16:37;;;;;;;1.40;0.60;;;;;;;14.95;69.85;101799.47;5016820;28;20447;-67
2021/06/13 07:19:04;;;;;;;0.57;0.50;;;;;;;15.00;69.18;101802.09;5016825;28;20447;-67
2021/06/13 07:21:30;;;;;;;0.70;0.60;;;;;;;15.05;68.84;101807.47;5023317;28;20444;-68
2021/06/13 07:23:57;;;;;;;1.60;0.80;;;;;;;15.07;67.86;101807.97;5016504;28;20494;-67
2021/06/13 07:26:25;;;;;;;1.13;0.70;;;;;;;15.17;68.38;101812.44;5016708;28;20436;-67
2021/06/13 07:28:51;;;;;;;5.83;1.20;;;;;;;15.19;68.13;101818.41;5016668;28;20459;-68
2021/06/13 07:31:18;;;;;;;0.50;0.40;;;;;;;15.21;66.95;101814.25;5016613;28;20814;-67
2021/06/13 07:33:44;;;;;;;0.63;0.60;;;;;;;15.13;67.54;101814.97;5016539;28;20451;-67
2021/06/13 07:36:10;;;;;;;2.37;1.17;;;;;;;15.18;67.16;101822.25;5016399;28;20464;-67
2021/06/13 07:38:37;;;;;;;0.57;0.50;;;;;;;15.21;68.02;101835.28;5016555;28;20460;-67
2021/06/13 07:41:03;;;;;;;9.63;0.77;;;;;;;15.10;67.79;101823.78;5016081;28;20972;-67
2021/06/13 07:43:31;;;;;;;1.03;0.60;;;;;;;15.20;67.59;101829.03;5016596;28;20482;-68
2021/06/13 07:45:58;;;;;;;3.60;1.40;;;;;;;15.35;67.93;101847.03;5016247;28;20490;-68
2021/06/13 07:48:24;;;;;;;1.70;1.00;;;;;;;15.31;67.25;101832.38;5016073;28;20472;-67
2021/06/13 07:50:51;;;;;;;1.63;0.70;;;;;;;15.53;67.26;101837.13;5016214;28;20444;-68
2021/06/13 07:53:18;;;;;;;3.60;0.60;;;;;;;15.64;66.52;101844.84;5016143;28;20447;-68
2021/06/13 07:55:44;;;;;;;0.70;0.70;;;;;;;15.64;66.13;101839.38;5015604;28;20478;-69
2021/06/13 07:58:11;;;;;;;1.20;0.80;;;;;;;15.67;66.68;101846.19;5015883;28;20462;-71
2021/06/13 08:00:39;;;;;;;1.33;0.80;;;;;;;15.69;66.56;101838.47;5016041;28;20976;-70
2021/06/13 08:03:06;;;;;;;1.33;1.23;;;;;;;15.75;66.99;101844.63;5016098;28;20493;-70
2021/06/13 08:05:34;;;;;;;0.83;0.80;;;;;;;15.79;66.17;101851.91;5015477;28;21017;-70
2021/06/13 08:08:04;;;;;;;1.10;0.77;;;;;;;15.86;64.52;101852.31;5015858;28;20448;-71
2021/06/13 08:10:30;;;;;;;0.70;0.60;;;;;;;15.98;64.15;101859.19;5016145;28;20799;-71
2021/06/13 08:12:58;;;;;;;2.93;0.83;;;;;;;15.95;63.71;101865.28;5015666;28;20444;-71
2021/06/13 08:15:24;;;;;;;2.73;1.23;;;;;;;15.80;65.86;101867.19;5015917;28;20510;-70
2021/06/13 08:17:52;;;;;;;1.47;0.70;;;;;;;15.86;66.22;101868.72;5015383;28;20443;-71
2021/06/13 08:20:19;;;;;;;2.77;0.97;;;;;;;15.91;66.56;101878.72;5014889;28;20451;-71
2021/06/13 08:22:46;;;;;;;2.93;1.57;;;;;;;15.99;65.86;101871.75;5015584;28;20456;-70
2021/06/13 08:25:14;;;;;;;0.70;0.70;;;;;;;15.95;66.39;101870.75;5014991;28;21019;-71
2021/06/13 08:27:41;;;;;;;2.83;1.50;;;;;;;16.01;66.59;101864.84;5015543;28;20444;-71
2021/06/13 08:30:11;;;;;;;3.60;1.10;;;;;;;16.18;66.87;101866.94;5015516;28;20543;-71
2021/06/13 08:32:38;;;;;;;6.90;1.00;;;;;;;16.34;66.83;101870.97;5015361;28;20452;-71
2021/06/13 08:35:08;;;;;;;1.53;0.80;;;;;;;16.38;66.78;101871.97;5015380;28;20467;-71
2021/06/13 08:37:36;;;;;;;1.50;0.70;;;;;;;16.44;66.22;101882.78;5015625;28;20432;-71
2021/06/13 08:40:07;;;;;;;1.17;0.90;;;;;;;16.39;64.44;101881.78;5015264;28;20929;-73
2021/06/13 08:42:33;;;;;;;2.50;0.77;;;;;;;16.33;65.79;101883.00;5015229;28;20458;-70
2021/06/13 08:45:00;;;;;;;1.10;0.83;;;;;;;16.34;65.93;101887.38;5015131;28;20488;-71
2021/06/13 08:47:28;;;;;;;2.30;0.90;;;;;;;16.35;65.80;101885.44;5015156;28;20440;-71
2021/06/13 08:49:54;;;;;;;6.73;0.80;;;;;;;16.39;66.50;101889.19;5015104;28;20452;-71
2021/06/13 08:52:22;;;;;;;1.80;0.93;;;;;;;16.43;66.22;101901.13;5015078;28;20443;-71
2021/06/13 08:54:49;;;;;;;1.30;0.80;;;;;;;16.38;65.16;101899.31;5014625;28;20456;-71
2021/06/13 08:57:16;;;;;;;3.43;1.50;;;;;;;16.49;64.43;101897.16;5014792;28;20470;-71
2021/06/13 08:59:43;;;;;;;1.20;1.00;;;;;;;16.36;64.82;101898.00;5014942;28;20484;-72
2021/06/13 09:02:10;;;;;;;6.80;0.87;;;;;;;16.05;65.95;101898.66;5015094;28;20436;-72
2021/06/13 09:04:36;;;;;;;2.57;0.70;;;;;;;16.01;66.78;101905.03;5014747;28;20528;-72
2021/06/13 09:07:11;;;;;;;1.77;0.60;;;;;;;15.74;69.90;101914.06;5014866;28;20448;-71
2021/06/13 09:09:39;;;;;;;1.37;0.80;;;;;;;15.42;72.45;101921.19;5016054;28;20438;-71
2021/06/13 09:12:07;;;;;;;1.97;1.00;;;;;;;15.24;74.56;101913.88;5019510;28;20460;-72
2021/06/13 09:14:38;;;;;;;4.33;0.87;;;;;;;15.09;73.78;101914.91;5014549;28;20474;-71
2021/06/13 09:17:13;;;;;;;1.53;0.90;;;;;;;14.93;74.51;101921.75;5014647;28;20428;-70
2021/06/13 09:20:05;;;;;;;1.27;0.70;;;;;;;14.80;75.54;101929.56;5014290;28;20910;-72
2021/06/13 09:22:32;;;;;;;5.80;0.93;;;;;;;14.74;77.13;101928.03;5014522;28;20428;-71
2021/06/13 09:25:09;;;;;;;1.03;0.70;;;;;;;14.70;77.50;101924.28;5013910;28;20492;-71
2021/06/13 09:27:37;;;;;;;9.73;1.67;;;;;;;14.83;77.70;101933.59;5014136;28;20431;-72
2021/06/13 09:30:04;;;;;;;4.73;1.10;;;;;;;15.03;76.05;101918.84;5013948;28;20450;-72
2021/06/13 09:32:30;;;;;;;1.07;1.00;;;;;;;15.29;74.66;101927.41;5014389;28;20440;-72
2021/06/13 09:35:28;;;;;;;2.87;0.77;;;;;;;15.61;73.74;101915.63;5014100;28;20479;-72
2021/06/13 09:38:13;;;;;;;3.23;1.43;;;;;;;15.93;71.64;101930.34;4980772;28;20464;-72
2021/06/13 09:40:44;;;;;;;1.53;0.97;;;;;;;16.14;70.67;101934.28;5014037;28;20470;-71
2021/06/13 09:43:12;;;;;;;2.87;1.10;;;;;;;16.55;70.16;101939.66;5013675;28;20921;-71
2021/06/13 09:45:39;;;;;;;6.13;1.40;;;;;;;16.81;67.48;101939.91;5013822;28;20488;-71
2021/06/13 09:48:07;;;;;;;2.33;1.27;;;;;;;16.94;66.22;101929.22;5013849;28;20459;-71
2021/06/13 09:50:41;;;;;;;3.90;1.67;;;;;;;16.97;65.73;101920.41;5013865;28;20444;-69
2021/06/13 09:53:27;;;;;;;4.77;1.53;;;;;;;17.29;63.58;101933.81;5013532;28;20816;-70
2021/06/13 09:56:18;;;;;;;1.60;1.23;;;;;;;17.37;62.17;101930.31;5013360;28;20471;-70
2021/06/13 09:58:53;;;;;;;1.27;1.13;;;;;;;17.47;62.08;101931.19;5014198;28;20431;-70
2021/06/13 10:01:21;;;;;;;0.50;0.50;;;;;;;17.54;60.34;101932.34;5013821;28;20428;-70
2021/06/13 10:03:48;;;;;;;0.90;0.90;;;;;;;17.52;59.43;101942.00;5013446;28;20933;-70
2021/06/13 10:06:17;;;;;;;3.53;1.80;;;;;;;17.63;58.92;101937.88;5013564;28;20488;-70
2021/06/13 10:08:44;;;;;;;2.50;1.20;;;;;;;17.64;58.79;101932.06;5013641;28;20436;-70
2021/06/13 10:11:11;;;;;;;1.37;1.03;;;;;;;17.68;57.74;101926.78;5013683;28;20436;-71
2021/06/13 10:13:48;;;;;;;6.37;1.50;;;;;;;17.74;57.50;101938.41;5013366;28;20911;-70
2021/06/13 10:16:30;;;;;;;1.73;1.53;;;;;;;17.68;56.93;101923.22;5013366;28;20806;-70
2021/06/13 10:19:03;;;;;;;3.63;1.07;;;;;;;17.76;58.71;101936.19;5013314;28;21004;-70
2021/06/13 10:21:34;;;;;;;2.30;1.00;;;;;;;17.86;59.95;101949.59;5013655;28;20424;-70
2021/06/13 10:24:01;;;;;;;2.00;0.90;;;;;;;17.53;56.95;101936.22;5013277;28;20989;-70
2021/06/13 10:26:27;;;;;;;1.27;1.10;;;;;;;17.57;58.24;101941.84;5013152;28;20858;-71
2021/06/13 10:28:56;;;;;;;1.70;1.07;;;;;;;17.68;59.68;101942.41;5013530;28;20443;-70
2021/06/13 10:31:23;;;;;;;6.20;0.90;;;;;;;17.98;58.18;101949.00;5013503;28;20483;-70
2021/06/13 10:33:50;;;;;;;6.50;1.07;;;;;;;18.02;56.68;101947.25;5013361;28;20448;-70
2021/06/13 10:36:17;;;;;;;4.57;1.40;;;;;;;18.09;56.99;101942.91;5013389;28;20929;-70
2021/06/13 10:38:44;;;;;;;2.13;1.43;;;;;;;18.07;57.09;101949.84;5013169;28;20941;-70
2021/06/13 10:41:10;;;;;;;1.33;0.80;;;;;;;17.93;57.38;101951.88;5013436;28;20480;-70
2021/06/13 10:43:37;;;;;;;4.40;1.10;;;;;;;17.81;57.45;101957.97;5016866;28;20454;-71
2021/06/13 10:46:07;;;;;;;1.20;1.10;;;;;;;17.86;58.27;101960.56;5017021;28;20495;-70
2021/06/13 10:48:42;;;;;;;1.07;0.90;;;;;;;17.62;58.92;101960.94;5017409;28;20451;-70
2021/06/13 10:51:41;;;;;;;2.30;1.60;;;;;;;17.43;60.70;101963.88;5017359;28;20423;-69
2021/06/13 10:54:31;;;;;;;2.20;1.40;;;;;;;17.30;61.94;101962.81;5017297;28;20427;-70
2021/06/13 10:57:32;;;;;;;9.10;1.27;;;;;;;17.27;62.77;101962.66;5017110;28;20447;-70
2021/06/13 11:00:02;;;;;;;2.50;1.20;;;;;;;17.48;61.44;101961.00;5008774;28;20440;-70
2021/06/13 11:02:55;;;;;;;1.17;0.80;;;;;;;17.60;59.94;101969.44;5023088;28;20435;-73
2021/06/13 11:05:40;;;;;;;1.53;1.00;;;;;;;17.94;58.87;101964.47;5016700;28;20495;-72
2021/06/13 11:08:07;;;;;;;3.70;1.80;;;;;;;18.18;58.30;101978.56;5016830;28;20435;-71
2021/06/13 11:10:34;;;;;;;2.70;1.33;;;;;;;18.13;57.51;101970.50;5016562;28;20531;-71
2021/06/13 11:13:05;;;;;;;3.73;1.23;;;;;;;18.11;58.29;101983.72;5016802;28;20444;-72
2021/06/13 11:15:52;;;;;;;3.23;1.83;;;;;;;18.14;57.97;101983.06;5016828;28;20509;-71
2021/06/13 11:18:23;;;;;;;3.50;1.40;;;;;;;18.26;58.23;101977.78;5011500;28;20453;-71
2021/06/13 11:20:54;;;;;;;7.00;1.23;;;;;;;18.37;57.10;101978.28;5011314;28;20811;-71
2021/06/13 11:23:42;;;;;;;2.63;1.40;;;;;;;18.34;58.57;101984.44;5016532;28;20439;-71
2021/06/13 11:26:28;;;;;;;2.23;1.27;;;;;;;18.55;57.02;101990.09;5016515;28;20492;-71
2021/06/13 11:28:54;;;;;;;1.07;0.67;;;;;;;18.81;55.28;101992.91;5016893;28;20436;-72
2021/06/13 11:31:24;;;;;;;6.10;0.90;;;;;;;19.60;50.59;101997.19;5005819;28;20448;-71
2021/06/13 11:34:06;;;;;;;1.37;1.17;;;;;;;19.78;50.23;101996.03;5004757;28;20846;-71